Date,TemperatureHighF,TemperatureAvgF,TemperatureLowF,DewpointHighF,DewpointAvgF,DewpointLowF,HumidityHigh,HumidityAvg,HumidityLow,PressureMaxIn,PressureMinIn,WindSpeedMaxMPH,WindSpeedAvgMPH,GustSpeedMaxMPH,PrecipitationSumIn
2013-1-1,73.2,60.2,49.1,59.1,54.7,48.0,98,83,60,30.22,30.00,8,1,14,0.00
2013-1-2,73.3,64.7,59.2,66.8,61.0,56.4,96,88,79,30.07,29.96,7,1,12,0.02
2013-1-3,61.4,56.4,49.6,60.2,54.8,47.7,97,94,88,30.25,30.05,5,1,10,0.10
2013-1-4,56.2,51.5,47.5,51.8,48.2,44.7,95,89,82,30.33,30.23,9,1,9,0.00
2013-1-5,61.6,53.3,44.2,53.3,46.9,37.9,90,79,72,30.37,30.26,8,2,11,0.00
2013-1-6,61.4,56.0,50.9,55.9,53.3,49.2,97,91,80,30.26,30.12,6,1,8,0.65
2013-1-7,61.9,54.6,47.2,54.0,49.8,42.7,94,84,73,30.30,30.18,12,3,16,0.01
2013-1-8,69.9,61.7,57.7,64.8,58.6,54.0,96,90,83,30.28,30.19,11,2,12,0.00
2013-1-9,74.5,65.7,61.2,69.9,64.1,60.6,99,95,85,30.34,30.23,8,2,10,0.00
2013-1-10,77.4,68.4,62.7,69.3,65.6,62.4,100,92,69,30.35,30.26,8,1,12,0.00
2013-1-11,81.5,68.9,60.2,68.3,63.8,59.6,99,86,54,30.27,30.14,8,0,10,0.00
2013-1-12,80.7,68.3,60.9,68.4,63.5,60.0,99,86,52,30.20,30.09,7,1,8,0.01
2013-1-13,78.8,68.4,60.4,66.5,63.0,59.7,99,84,57,30.17,30.07,7,1,10,0.00
2013-1-14,81.3,69.9,60.2,67.1,63.2,59.1,98,81,55,30.19,30.10,9,1,11,0.01
2013-1-15,80.8,70.1,63.2,67.5,64.3,61.2,98,83,56,30.16,30.04,9,1,12,0.00
2013-1-16,79.7,71.6,65.1,67.3,64.4,61.3,93,79,57,30.08,29.97,7,1,12,0.00
2013-1-17,73.2,60.4,44.0,65.2,54.5,35.0,95,81,60,30.15,29.90,17,4,26,0.00
2013-1-18,56.6,50.4,42.9,45.8,41.8,34.8,82,73,63,30.40,30.15,17,4,23,0.00
2013-1-19,61.3,54.2,46.5,55.1,49.2,41.0,93,83,77,30.36,30.20,10,3,16,0.00
2013-1-20,72.8,61.3,54.4,54.7,52.1,49.3,95,74,46,30.22,30.06,6,1,9,0.00
2013-1-21,69.5,59.7,51.0,51.6,48.8,42.8,93,69,48,30.13,30.01,7,0,9,0.00
2013-1-22,62.9,54.7,47.1,42.8,33.7,28.7,63,46,29,30.30,30.09,10,1,13,0.00
2013-1-23,63.6,52.1,42.3,43.4,33.5,26.8,72,50,34,30.42,30.27,8,1,9,0.00
2013-1-24,72.5,60.0,49.8,54.2,48.1,41.0,84,66,46,30.31,30.18,10,2,15,0.00
2013-1-25,73.1,62.4,55.0,57.6,52.1,45.5,90,71,39,30.33,30.15,10,2,12,0.00
2013-1-26,73.8,64.4,54.7,61.9,57.5,50.5,95,79,65,30.24,30.14,8,1,10,0.00
2013-1-27,67.3,62.1,59.3,59.2,56.4,54.0,91,82,67,30.37,30.21,14,4,17,0.00
2013-1-28,77.3,66.5,56.8,63.9,60.7,55.4,97,83,61,30.37,30.24,10,1,13,0.00
2013-1-29,82.3,69.4,60.8,67.5,64.4,59.8,98,85,58,30.26,30.08,7,1,13,0.00
2013-1-30,83.1,73.5,58.0,66.4,64.7,55.2,93,75,55,30.10,29.76,18,3,22,0.17
2013-1-31,60.1,53.7,48.0,55.4,37.7,28.4,91,57,32,30.26,29.87,13,2,23,0.04
2013-2-1,64.0,53.3,43.6,37.8,32.5,24.5,61,46,33,30.33,30.24,10,1,15,0.00
2013-2-2,66.0,51.0,39.0,46.9,32.5,23.6,89,51,30,30.36,30.15,8,1,10,0.00
2013-2-3,66.3,55.1,45.8,47.0,36.2,28.2,86,52,25,30.19,30.03,10,2,14,0.00
2013-2-4,63.6,55.0,44.8,48.2,41.0,34.8,86,61,35,30.13,30.04,6,0,8,0.00
2013-2-5,70.3,58.2,46.1,52.5,46.4,41.6,88,66,44,30.11,29.99,6,0,7,0.00
2013-2-6,69.5,62.8,58.6,58.9,56.1,50.4,91,79,65,30.15,30.04,8,0,9,0.00
2013-2-7,76.3,67.3,62.2,65.0,62.2,58.1,95,84,64,30.10,29.78,10,2,13,0.02
2013-2-8,69.7,61.9,56.6,64.9,55.6,52.2,92,80,63,30.09,29.82,10,2,12,0.00
2013-2-9,63.4,56.8,49.1,53.1,48.0,41.8,90,74,51,30.26,30.08,14,3,16,0.00
2013-2-10,75.0,64.5,54.3,59.3,55.4,49.0,92,73,52,30.31,30.16,10,1,16,0.00
2013-2-11,80.0,70.6,63.6,64.4,61.8,58.8,88,75,56,30.18,30.04,10,2,13,0.00
2013-2-12,80.9,70.2,65.4,67.9,65.0,62.2,97,84,59,30.07,29.84,15,2,16,0.00
2013-2-13,75.0,70.8,60.6,71.4,65.3,50.2,95,83,52,29.92,29.78,13,3,16,0.24
2013-2-14,60.6,53.2,48.5,56.1,49.0,44.2,93,86,79,30.09,29.90,5,0,7,0.16
2013-2-15,62.9,52.6,44.1,49.3,45.3,40.5,90,77,56,30.11,29.97,8,1,11,0.00
2013-2-16,58.7,49.4,40.5,48.9,42.5,26.9,93,78,53,30.14,29.92,13,1,18,0.05
2013-2-17,53.5,43.0,33.4,26.9,18.0,9.0,64,40,18,30.36,30.14,10,1,13,0.00
2013-2-18,61.7,47.6,31.9,45.2,33.9,20.9,86,61,37,30.42,30.23,12,1,15,0.00
2013-2-19,75.6,62.5,46.8,61.8,53.3,43.4,91,74,48,30.24,29.99,15,3,19,0.00
2013-2-20,68.1,56.8,47.6,57.5,40.3,26.1,90,57,29,30.18,30.05,8,1,10,0.00
2013-2-21,68.9,57.8,47.1,58.1,47.6,36.8,91,71,41,30.17,30.04,9,1,10,0.00
2013-2-22,81.9,71.3,62.0,68.3,65.2,58.1,97,82,54,30.08,29.97,9,1,13,0.00
2013-2-23,80.9,71.7,62.8,68.2,65.6,60.8,97,82,59,29.98,29.82,15,3,19,0.48
2013-2-24,72.9,65.0,60.0,62.7,56.5,35.4,97,78,26,30.00,29.83,9,1,10,0.15
2013-2-25,67.7,62.8,60.5,66.8,60.9,56.0,97,94,84,29.95,29.79,14,4,19,1.43
2013-2-26,77.6,69.4,61.5,68.6,63.0,54.5,98,82,46,29.82,29.65,16,4,19,0.34
2013-2-27,69.6,60.8,54.1,55.5,47.9,43.3,83,64,40,29.97,29.82,14,2,16,0.00
2013-2-28,69.0,59.4,50.8,47.8,43.0,34.0,81,57,37,29.98,29.84,13,2,18,0.00
2013-3-1,60.0,53.1,48.0,38.7,36.9,34.1,65,54,42,30.01,29.90,9,1,12,0.00
2013-3-2,53.5,46.6,40.6,37.3,33.4,29.5,81,61,42,30.03,29.92,16,2,20,0.00
2013-3-3,46.9,41.8,37.7,32.6,30.1,27.4,80,64,48,30.14,29.99,13,1,15,0.00
2013-3-4,63.0,48.8,36.4,45.0,31.1,22.5,75,54,28,30.23,30.10,9,1,11,0.00
2013-3-5,74.0,60.8,46.8,58.1,47.0,38.7,81,62,31,30.18,29.88,14,4,17,0.00
2013-3-6,65.7,52.9,45.2,60.8,37.2,27.7,88,57,32,30.14,29.85,16,4,19,0.01
2013-3-7,63.7,49.2,38.4,44.2,36.6,31.3,86,63,37,30.24,30.13,8,1,10,0.00
2013-3-8,67.6,53.7,44.5,51.0,44.5,38.1,93,73,34,30.24,30.15,15,2,15,0.00
2013-3-9,65.7,56.2,47.9,52.0,48.2,45.9,93,76,51,30.28,30.18,13,2,15,0.00
2013-3-10,74.2,62.9,53.3,58.3,54.4,51.2,95,75,50,30.23,30.12,14,2,16,0.00
2013-3-11,76.0,66.7,57.2,61.2,57.5,54.8,93,74,53,30.13,29.88,10,1,14,0.01
2013-3-12,68.7,64.9,56.7,66.2,59.0,47.8,97,82,54,30.01,29.82,8,1,10,0.06
2013-3-13,70.3,59.7,50.1,47.6,37.0,30.7,72,46,24,30.19,30.01,9,1,13,0.00
2013-3-14,61.3,51.7,44.8,38.7,31.6,26.5,77,47,29,30.31,30.16,9,1,13,0.00
2013-3-15,72.1,57.3,43.3,47.6,38.2,25.5,82,52,29,30.29,30.11,6,1,10,0.00
2013-3-16,78.3,64.6,51.9,53.0,48.8,42.1,87,59,34,30.16,29.98,11,2,14,0.00
2013-3-17,76.6,65.6,52.7,55.5,49.7,43.7,91,59,32,30.12,29.97,10,1,12,0.00
2013-3-18,79.4,69.5,62.5,64.7,60.5,54.1,87,74,56,30.05,29.84,9,1,10,0.00
2013-3-19,80.3,70.4,62.4,65.1,59.7,56.7,89,70,47,30.01,29.87,10,1,21,0.00
2013-3-20,66.5,61.0,52.7,59.8,52.6,47.3,93,75,56,30.02,29.84,15,2,17,0.19
2013-3-21,67.6,56.2,46.0,52.4,35.3,23.3,94,51,19,29.96,29.85,9,1,12,0.00
2013-3-22,64.3,56.6,49.9,50.0,39.1,31.0,77,53,40,30.06,29.93,11,3,16,0.00
2013-3-23,68.2,61.3,56.0,66.0,58.8,50.0,99,92,77,30.00,29.78,14,1,23,1.80
2013-3-24,82.7,71.1,61.7,71.3,66.0,61.4,99,86,56,29.81,29.51,13,3,21,0.16
2013-3-25,69.3,59.5,50.2,62.1,38.4,25.2,85,48,24,30.03,29.60,16,3,17,0.00
2013-3-26,56.4,48.8,41.1,31.0,28.1,24.3,56,45,33,30.25,30.03,14,2,21,0.00
2013-3-27,60.4,49.4,38.4,34.8,30.6,27.8,69,50,33,30.31,30.20,6,1,10,0.00
2013-3-28,67.2,55.0,44.5,43.2,35.6,25.1,76,51,21,30.31,30.20,10,1,11,0.00
2013-3-29,72.3,58.8,46.7,48.4,41.9,33.4,86,58,25,30.34,30.19,9,1,12,0.00
2013-3-30,76.5,63.4,48.1,54.7,46.2,39.0,86,57,28,30.27,30.09,10,1,12,0.00
2013-3-31,79.3,68.8,58.6,58.5,53.2,44.6,77,58,45,30.13,29.95,10,3,13,0.00
2013-4-1,80.2,70.9,62.7,65.4,62.0,58.5,91,75,54,29.99,29.87,8,2,12,0.00
2013-4-2,74.9,67.5,60.1,62.4,51.6,43.6,89,60,34,30.11,29.96,9,2,13,0.00
2013-4-3,80.0,66.3,57.6,64.3,59.9,54.8,96,82,48,30.09,30.01,14,2,15,0.26
2013-4-4,76.2,70.1,65.0,70.3,66.0,63.8,98,87,71,30.06,29.84,12,2,16,0.12
2013-4-5,68.6,59.8,54.5,64.8,57.3,51.8,97,92,84,30.03,29.80,8,1,11,0.35
2013-4-6,67.2,60.1,51.4,57.5,53.1,48.0,89,78,55,30.18,30.02,16,3,17,0.01
2013-4-7,75.8,66.9,58.9,63.7,58.8,54.3,95,77,54,30.19,30.09,10,0,12,0.00
2013-4-8,81.6,68.5,58.2,64.8,60.6,56.4,97,78,50,30.16,30.07,10,1,13,0.00
2013-4-9,81.3,71.1,61.8,67.9,63.5,60.7,98,79,55,30.19,30.08,9,1,11,0.00
2013-4-10,80.7,71.0,59.5,67.2,63.8,58.1,98,79,61,30.14,29.99,10,1,11,0.00
2013-4-11,86.3,75.5,69.7,72.7,70.1,67.2,96,84,58,29.99,29.78,8,1,12,0.15
2013-4-12,85.2,76.9,71.9,73.7,70.6,67.4,97,82,56,29.86,29.73,15,3,18,0.01
2013-4-13,81.2,71.7,63.3,68.6,55.2,47.6,88,58,34,30.01,29.86,6,1,10,0.00
2013-4-14,74.9,65.9,61.5,66.0,61.8,57.4,98,87,61,30.02,29.85,9,1,15,0.72
2013-4-15,83.9,70.6,62.7,67.8,64.9,62.1,99,84,55,30.11,29.81,11,2,14,0.11
2013-4-16,80.3,71.4,65.7,70.4,66.6,64.4,97,86,66,30.18,30.08,14,2,16,0.02
2013-4-17,76.5,71.3,66.5,69.6,66.9,65.0,96,87,75,30.17,30.09,9,2,10,0.02
2013-4-18,86.3,75.3,66.3,70.5,67.5,65.1,97,79,53,30.09,29.95,9,1,11,0.01
2013-4-19,88.5,78.3,67.2,73.2,70.8,64.2,93,79,54,29.99,29.84,12,2,14,0.02
2013-4-20,67.2,56.8,50.3,64.3,53.0,47.8,95,87,76,30.20,29.98,9,1,12,0.01
2013-4-21,69.3,64.5,58.9,62.8,58.7,52.5,91,82,74,30.20,30.11,18,5,24,0.00
2013-4-22,66.0,63.0,59.8,63.6,59.5,55.2,96,89,74,30.16,30.05,20,4,20,0.01
2013-4-23,70.0,63.9,58.5,59.4,57.3,55.4,92,80,64,30.17,30.07,10,2,14,0.00
2013-4-24,83.0,69.9,57.6,65.0,60.6,56.2,97,75,44,30.16,30.07,8,0,10,0.00
2013-4-25,84.4,74.6,63.2,67.8,64.8,60.8,94,73,49,30.19,30.09,7,0,7,0.00
2013-4-26,77.5,71.3,64.8,67.0,62.0,54.2,88,73,61,30.29,30.15,16,3,16,0.00
2013-4-27,80.0,71.9,64.2,65.9,61.7,57.2,93,72,47,30.25,30.14,10,2,14,0.00
2013-4-28,81.8,73.6,66.7,67.5,64.8,63.0,92,75,55,30.17,29.98,13,1,13,0.01
2013-4-29,81.8,72.7,65.9,68.5,65.8,63.9,95,80,60,30.02,29.90,8,0,14,0.00
2013-4-30,83.4,71.2,65.2,69.4,65.9,63.3,98,85,56,30.03,29.93,10,1,14,0.17
2013-5-1,76.2,69.9,67.2,69.6,65.8,62.5,94,87,79,30.06,29.97,17,4,21,0.00
2013-5-2,70.4,69.0,67.5,69.4,67.4,64.8,98,95,88,30.03,29.90,16,3,19,1.84
2013-5-3,71.0,67.9,65.3,67.1,64.8,60.6,97,90,71,29.91,29.82,19,6,25,1.23
2013-5-4,70.2,67.8,65.3,69.3,66.1,61.5,98,94,78,29.83,29.68,16,4,21,0.88
2013-5-5,77.0,68.6,59.7,69.7,58.2,50.0,98,73,40,29.88,29.71,9,1,11,0.00
2013-5-6,72.4,65.4,56.6,60.1,51.5,45.8,86,62,42,29.98,29.84,10,2,11,0.00
2013-5-7,77.6,67.4,59.0,62.3,57.0,52.6,85,70,47,30.01,29.90,11,2,13,0.03
2013-5-8,80.3,71.0,60.7,62.7,59.0,56.2,94,68,46,30.09,29.99,7,1,10,0.00
2013-5-9,84.4,74.3,65.0,66.3,62.2,58.6,94,68,43,30.12,30.04,7,0,7,0.00
2013-5-10,88.7,76.6,64.3,70.0,64.5,59.2,92,68,40,30.12,29.97,8,1,12,0.00
2013-5-11,87.6,75.7,69.7,71.9,68.3,64.1,94,79,54,30.03,29.90,14,1,16,0.21
2013-5-12,83.8,75.2,67.8,68.9,65.6,56.6,96,74,50,30.01,29.91,8,1,11,0.00
2013-5-13,78.3,71.6,64.3,57.3,46.9,38.0,61,43,24,30.14,29.98,8,1,12,0.00
2013-5-14,79.2,69.7,60.4,54.2,43.5,35.0,68,40,22,30.24,30.14,8,1,9,0.00
2013-5-15,84.5,72.3,60.3,60.9,56.8,53.0,92,61,36,30.22,30.06,5,0,9,0.00
2013-5-16,84.8,75.5,68.4,68.3,63.8,60.2,80,68,47,30.12,30.00,7,1,10,0.00
2013-5-17,85.3,76.0,67.1,68.7,65.1,52.5,90,71,36,30.10,30.03,11,1,13,0.00
2013-5-18,88.1,76.9,69.2,72.8,69.5,65.2,95,79,51,30.12,30.01,9,1,11,0.19
2013-5-19,87.5,76.8,69.4,75.1,70.7,66.0,98,82,58,30.09,29.98,9,1,10,0.02
2013-5-20,82.7,75.6,69.9,73.8,71.1,67.7,98,87,69,30.09,30.00,8,0,10,0.20
2013-5-21,80.9,74.3,70.7,74.1,70.8,67.3,98,89,72,30.05,29.93,8,0,10,0.12
2013-5-22,81.5,75.5,69.0,73.8,70.7,68.0,98,86,72,29.99,29.90,8,1,10,0.00
2013-5-23,89.9,79.9,70.6,72.9,69.7,66.1,96,74,47,29.97,29.88,9,0,9,0.00
2013-5-24,89.4,81.0,72.6,73.9,63.4,54.0,93,59,32,30.10,29.93,8,1,12,0.00
2013-5-25,79.4,74.6,68.1,65.0,57.2,53.1,79,56,42,30.25,30.09,13,2,13,0.00
2013-5-26,83.0,73.1,62.0,64.1,56.6,49.9,87,60,33,30.23,30.14,8,1,13,0.00
2013-5-27,84.7,73.9,63.9,66.4,63.1,59.6,89,70,49,30.20,30.13,9,1,13,0.00
2013-5-28,83.4,76.2,68.3,69.3,66.4,63.7,87,72,57,30.17,30.11,12,2,15,0.00
2013-5-29,86.1,78.2,71.7,73.5,71.2,68.2,91,80,65,30.16,30.09,13,2,15,0.00
2013-5-30,85.8,79.2,74.2,73.7,72.2,69.6,93,80,63,30.17,30.08,10,2,17,0.01
2013-5-31,85.8,78.6,72.6,72.8,71.1,69.5,94,79,61,30.15,30.07,11,2,16,0.01
2013-6-1,86.1,79.2,73.3,73.7,71.5,69.0,94,78,60,30.10,30.01,11,2,14,0.13
2013-6-2,88.1,79.7,73.8,76.4,74.5,72.6,98,85,67,30.05,29.87,8,1,13,0.01
2013-6-3,91.9,79.6,75.0,78.1,74.2,72.2,95,84,56,29.95,29.83,7,0,10,0.12
2013-6-4,85.8,79.0,74.4,76.8,74.4,72.7,95,86,70,30.01,29.91,6,1,8,0.01
2013-6-5,83.8,76.6,73.0,74.2,72.9,71.4,97,89,69,30.00,29.92,7,0,8,0.52
2013-6-6,77.5,74.5,71.7,76.1,73.2,70.2,98,96,93,29.93,29.53,11,1,23,1.43
2013-6-7,88.4,79.0,71.9,75.9,72.7,70.0,97,82,60,29.90,29.55,14,4,20,0.07
2013-6-8,91.5,81.2,74.7,76.7,73.6,69.6,96,79,49,30.07,29.90,8,1,9,0.00
2013-6-9,89.8,78.8,74.5,78.5,74.4,71.5,96,87,65,30.11,30.02,8,0,14,0.12
2013-6-10,91.1,81.7,74.7,77.2,74.8,73.3,97,81,58,30.09,29.98,5,0,9,0.01
2013-6-11,92.0,83.4,76.6,77.4,74.8,73.2,92,76,56,30.07,29.97,6,1,7,0.00
2013-6-12,94.8,85.5,76.0,77.7,74.7,71.2,94,72,47,30.05,29.93,6,1,7,0.00
2013-6-13,95.1,85.3,79.1,79.1,76.8,72.1,91,77,53,29.98,29.83,8,1,10,0.01
2013-6-14,90.8,80.6,71.2,78.5,75.7,68.8,96,86,64,29.93,29.76,8,2,13,1.84
2013-6-15,86.0,81.5,76.3,74.3,69.9,67.4,92,69,56,30.08,29.93,11,2,14,0.01
2013-6-16,86.5,80.2,73.1,74.0,71.3,69.1,88,75,61,30.12,30.03,8,1,10,0.00
2013-6-17,93.0,83.4,77.5,78.8,75.6,73.3,92,78,56,30.08,29.93,8,0,10,0.00
2013-6-18,92.5,84.3,75.7,75.3,73.5,71.2,92,72,51,30.02,29.89,9,2,13,0.00
2013-6-19,92.3,83.5,76.9,76.8,74.2,70.4,91,75,50,30.02,29.90,9,1,11,0.01
2013-6-20,88.9,79.8,71.9,77.0,74.3,68.6,96,84,64,30.09,29.97,15,1,17,1.10
2013-6-21,85.9,79.2,76.2,75.3,74.0,72.1,93,84,66,30.12,30.03,11,1,15,0.02
2013-6-22,85.9,78.7,75.2,76.4,74.1,71.8,95,86,70,30.12,30.06,10,0,13,0.08
2013-6-23,88.6,80.7,74.2,78.1,74.4,71.9,97,82,59,30.15,30.07,8,1,11,0.02
2013-6-24,87.9,81.2,75.6,77.2,74.6,72.5,95,81,62,30.19,30.08,10,1,12,0.21
2013-6-25,91.2,81.6,76.2,78.9,74.5,68.4,94,80,52,30.16,30.03,6,0,9,0.19
2013-6-26,93.0,80.5,72.8,77.1,74.6,69.4,95,83,53,30.08,29.98,10,0,14,0.37
2013-6-27,92.9,82.8,74.7,78.5,74.5,71.2,90,77,57,30.01,29.86,6,1,8,0.00
2013-6-28,90.6,81.3,77.9,77.4,74.8,71.7,90,81,62,29.92,29.77,10,2,16,0.00
2013-6-29,86.0,81.0,77.7,77.8,75.3,73.4,94,83,70,29.81,29.73,11,2,14,0.10
2013-6-30,90.5,79.4,75.3,77.3,75.1,72.5,95,87,63,29.85,29.76,7,1,10,0.34
2013-7-1,83.7,76.6,73.1,76.9,73.7,71.8,98,91,76,30.01,29.82,8,1,14,0.68
2013-7-2,87.4,76.4,72.5,77.2,74.0,71.9,99,93,69,30.09,29.97,11,0,15,0.14
2013-7-3,87.8,78.9,72.9,78.3,74.9,71.4,96,88,69,30.13,30.06,13,1,13,0.38
2013-7-4,89.1,80.4,73.4,77.9,74.5,71.2,96,83,65,30.17,30.08,11,1,16,0.21
2013-7-5,89.4,80.9,73.5,78.8,74.3,72.3,96,82,63,30.16,30.09,10,1,15,0.01
2013-7-6,89.3,81.8,75.4,76.4,74.7,73.5,95,80,61,30.13,30.05,10,1,15,0.00
2013-7-7,89.9,81.9,75.3,76.6,74.3,70.9,95,79,61,30.14,30.07,9,1,12,0.00
2013-7-8,90.3,82.1,75.5,76.8,74.7,71.8,95,79,59,30.17,30.08,8,1,10,0.00
2013-7-9,90.4,82.4,76.5,76.7,74.0,70.0,95,78,53,30.17,30.06,10,1,13,0.00
2013-7-10,90.4,81.7,74.2,76.3,73.6,70.9,96,78,54,30.10,29.95,7,1,9,0.00
2013-7-11,93.0,82.0,75.6,76.5,74.2,70.1,93,79,48,30.01,29.85,8,1,17,0.05
2013-7-12,89.1,79.1,76.6,77.0,74.7,72.2,93,87,62,29.93,29.87,10,0,12,0.03
2013-7-13,87.0,77.0,72.1,77.0,73.9,70.9,97,90,69,30.00,29.89,6,0,9,0.71
2013-7-14,85.3,77.5,71.8,76.1,73.2,70.8,99,87,70,30.12,29.97,8,1,11,0.01
2013-7-15,85.6,79.1,74.0,79.3,75.0,72.5,96,88,71,30.16,30.08,16,2,18,0.19
2013-7-16,86.7,81.7,77.2,78.2,75.5,73.7,93,82,69,30.19,30.13,11,2,14,0.06
2013-7-17,87.9,82.4,77.8,77.4,74.8,71.3,95,79,59,30.19,30.08,10,2,12,0.00
2013-7-18,88.2,81.5,75.7,76.1,74.3,72.1,95,80,60,30.12,30.03,9,1,11,0.00
2013-7-19,90.7,79.3,74.5,75.7,73.7,71.5,96,84,58,30.11,30.03,13,1,22,0.70
2013-7-20,87.7,77.6,73.8,77.7,73.6,71.3,94,88,70,30.09,30.01,12,0,12,0.11
2013-7-21,90.8,79.8,74.2,77.5,74.2,71.4,96,84,60,30.09,30.00,17,1,19,0.05
2013-7-22,91.1,79.7,74.7,77.3,75.6,72.3,95,88,59,30.11,30.01,17,2,21,0.44
2013-7-23,90.2,79.8,75.7,78.4,75.1,72.5,93,86,67,30.02,29.90,10,2,13,0.00
2013-7-24,87.2,79.4,73.5,77.3,74.4,70.3,96,85,72,29.91,29.80,9,2,11,0.12
2013-7-25,90.0,81.5,73.8,77.4,74.5,71.3,93,80,59,29.94,29.81,7,1,8,0.00
2013-7-26,91.5,83.5,77.1,78.0,76.1,72.9,95,79,56,30.00,29.92,9,1,12,0.00
2013-7-27,91.6,80.4,73.3,78.0,75.6,70.8,96,86,58,29.99,29.85,10,0,12,1.20
2013-7-28,89.9,79.5,73.3,78.6,75.0,71.0,97,87,56,30.04,29.90,8,0,11,2.11
2013-7-29,93.5,82.7,75.7,77.8,74.6,72.0,92,78,51,30.14,30.01,8,0,9,0.01
2013-7-30,92.5,82.7,77.0,78.2,76.4,72.6,89,82,60,30.16,30.07,7,0,10,0.15
2013-7-31,93.0,79.2,73.3,78.8,75.7,71.9,97,90,60,30.11,30.02,6,0,9,1.53
2013-8-1,91.8,77.8,72.2,77.8,74.2,70.8,98,90,62,30.03,29.92,13,0,19,1.35
2013-8-2,92.8,81.8,74.1,79.0,75.1,72.5,99,82,55,30.03,29.93,9,1,11,0.00
2013-8-3,90.0,82.5,77.0,80.1,77.0,74.4,94,84,65,30.04,29.96,8,0,10,0.12
2013-8-4,93.6,85.3,77.9,79.1,76.7,72.7,95,77,53,30.03,29.91,6,0,9,0.00
2013-8-5,94.4,85.6,80.5,79.0,77.6,73.9,93,78,54,29.98,29.88,9,1,14,0.00
2013-8-6,90.7,83.7,79.5,78.4,77.6,75.6,94,82,63,29.99,29.89,8,1,11,0.00
2013-8-7,87.8,83.2,79.6,78.3,76.9,75.4,91,82,68,30.00,29.93,11,2,12,0.00
2013-8-8,88.6,82.4,77.1,79.3,77.1,72.1,96,84,66,30.05,29.94,10,1,11,0.53
2013-8-9,91.8,82.1,76.6,80.8,76.5,73.7,98,84,61,30.08,29.97,8,0,11,0.52
2013-8-10,93.4,82.9,76.7,78.2,76.4,74.1,97,82,56,30.13,30.05,10,1,13,0.00
2013-8-11,94.0,84.9,78.7,78.4,76.3,72.5,94,77,53,30.15,30.05,6,0,11,0.00
2013-8-12,95.9,85.5,77.1,80.6,76.8,74.6,95,76,55,30.11,29.97,9,0,9,0.41
2013-8-13,95.3,85.8,78.2,78.6,76.0,71.6,96,74,47,30.02,29.87,5,1,7,0.01
2013-8-14,96.3,84.0,72.0,79.2,76.1,70.4,98,79,49,29.98,29.84,8,1,13,2.00
2013-8-15,94.3,81.1,74.1,78.3,75.6,72.7,98,85,54,30.02,29.89,7,0,14,0.91
2013-8-16,87.9,78.1,73.3,76.9,75.1,72.4,99,91,66,30.04,29.93,13,0,16,0.78
2013-8-17,88.2,80.4,75.8,79.8,76.9,74.6,98,90,69,30.10,29.99,8,0,9,0.46
2013-8-18,90.2,81.7,75.4,80.9,76.9,73.9,97,86,67,30.11,30.02,11,1,13,0.06
2013-8-19,91.0,83.1,78.0,79.1,77.3,74.9,95,84,64,30.09,29.95,7,0,10,0.02
2013-8-20,91.9,83.4,77.1,79.4,76.5,72.9,96,81,61,30.11,30.00,8,1,13,0.00
2013-8-21,87.9,81.7,78.0,79.3,77.1,74.2,95,86,69,30.16,30.07,8,1,14,0.27
2013-8-22,81.5,77.4,73.0,78.6,75.0,70.6,97,92,86,30.15,30.01,10,0,15,0.72
2013-8-23,85.7,78.8,75.7,79.5,76.4,74.6,97,92,75,30.04,29.98,7,0,9,0.15
2013-8-24,83.5,78.9,74.4,78.0,75.2,73.5,98,89,78,30.13,30.01,8,1,11,0.00
2013-8-25,83.4,78.6,74.7,77.5,74.5,71.6,93,87,78,30.19,30.11,14,3,18,0.20
2013-8-26,85.4,79.5,73.4,77.3,74.2,71.9,95,84,70,30.18,30.06,13,2,16,0.07
2013-8-27,87.2,80.7,76.0,76.0,71.5,67.3,92,75,55,30.09,29.99,10,1,10,0.00
2013-8-28,89.8,81.0,72.8,73.1,70.9,68.3,95,73,52,30.05,29.95,5,0,8,0.00
2013-8-29,92.4,84.2,76.4,75.3,71.6,68.4,86,68,47,30.01,29.89,7,1,11,0.00
2013-8-30,94.8,83.7,77.1,77.5,74.9,69.6,89,76,45,29.95,29.84,7,0,10,0.11
2013-8-31,92.5,79.5,74.4,78.1,74.6,70.5,96,86,52,29.95,29.84,11,0,23,0.09
2013-9-1,92.5,81.6,75.9,77.9,75.0,72.6,95,82,54,29.97,29.85,8,1,12,0.19
2013-9-2,92.4,82.0,76.6,77.6,75.2,73.7,94,81,59,29.98,29.86,7,1,12,0.05
2013-9-3,90.8,83.8,76.8,78.1,76.1,74.5,94,79,61,29.98,29.88,7,1,9,0.00
2013-9-4,94.1,84.0,78.2,78.3,75.7,72.1,92,77,51,30.06,29.96,9,0,13,0.01
2013-9-5,93.9,82.2,77.3,79.8,76.0,72.8,92,82,57,30.08,29.98,9,0,10,0.33
2013-9-6,89.1,79.7,74.6,78.0,75.4,72.4,95,87,66,30.04,29.96,9,1,15,0.16
2013-9-7,87.1,79.8,72.8,75.3,72.6,67.4,97,80,55,30.02,29.94,13,2,15,0.00
2013-9-8,87.1,80.5,72.7,74.4,70.8,65.9,95,74,50,29.98,29.90,9,1,12,0.00
2013-9-9,88.3,80.6,73.9,74.7,71.2,67.1,91,74,50,30.06,29.95,15,1,15,0.00
2013-9-10,88.1,81.8,76.1,74.3,71.9,68.7,90,73,55,30.13,30.03,13,2,16,0.00
2013-9-11,87.6,81.4,76.0,76.5,73.9,71.5,91,79,62,30.11,30.02,11,2,15,0.02
2013-9-12,88.7,81.0,75.5,75.9,74.0,70.6,93,80,60,30.04,29.88,8,1,9,0.00
2013-9-13,92.2,83.6,76.8,75.7,72.9,68.6,89,72,47,29.91,29.76,6,0,6,0.00
2013-9-14,93.1,81.8,75.5,79.0,74.1,70.8,96,79,50,29.99,29.80,8,0,11,0.80
2013-9-15,90.5,82.1,75.4,77.7,74.9,72.9,94,80,59,30.08,29.97,8,1,13,0.00
2013-9-16,89.9,82.5,76.8,78.1,75.8,73.2,96,81,59,30.08,29.98,9,1,11,0.00
2013-9-17,85.4,79.8,75.0,77.4,75.0,72.0,96,86,69,30.09,29.99,13,2,17,0.32
2013-9-18,82.0,76.9,73.1,74.9,72.6,69.6,98,87,72,30.10,30.02,15,3,19,2.93
2013-9-19,81.8,77.7,73.9,76.5,72.6,69.9,96,85,72,30.09,30.01,10,1,13,0.39
2013-9-20,84.6,77.5,71.2,72.5,70.5,69.6,96,80,62,30.05,29.92,8,1,10,0.00
2013-9-21,88.6,79.0,70.4,73.9,71.0,67.2,97,78,55,29.94,29.73,7,0,7,0.00
2013-9-22,82.8,77.3,73.7,75.7,73.4,71.6,95,88,77,29.84,29.72,6,1,10,0.16
2013-9-23,82.1,76.6,73.0,75.7,73.4,71.2,96,90,79,29.95,29.82,6,0,8,0.00
2013-9-24,81.6,76.1,74.7,76.7,74.2,72.6,98,94,82,29.95,29.84,7,1,10,0.45
2013-9-30,75.1,74.7,74.0,65.0,64.7,63.8,73,71,68,30.03,29.97,5,1,8,0.00
2013-10-1,79.4,74.5,69.5,68.9,65.9,64.5,84,75,62,30.09,30.00,9,1,10,0.00
2013-10-2,81.1,73.7,66.7,69.6,66.8,63.7,92,80,63,30.10,30.04,11,2,14,0.00
2013-10-3,83.4,76.8,70.6,74.7,72.0,68.1,93,85,73,30.09,30.00,12,2,12,0.00
2013-10-4,86.4,79.0,73.8,75.6,73.9,71.8,97,85,64,30.09,30.01,10,1,11,0.00
2013-10-5,84.0,78.2,73.5,75.6,73.4,72.2,96,86,71,30.07,29.98,9,2,12,0.00
2013-10-6,83.2,78.1,74.1,77.2,74.8,72.6,97,90,77,30.00,29.85,6,0,8,0.94
2013-10-7,86.5,77.3,73.2,76.5,73.6,71.8,96,89,63,29.87,29.74,5,0,7,0.02
2013-10-8,80.3,72.8,65.8,75.4,71.0,63.7,97,94,83,30.01,29.77,12,2,15,1.81
2013-10-9,72.4,65.0,61.0,66.3,62.4,59.6,97,92,78,30.09,29.99,8,1,10,0.01
2013-10-10,82.3,71.3,62.6,65.9,63.2,60.2,96,78,49,30.07,29.95,6,0,11,0.00
2013-10-11,84.0,74.2,66.9,67.6,64.4,60.4,94,74,46,30.04,29.92,6,0,7,0.00
2013-10-12,85.2,74.6,65.4,65.8,63.2,59.7,92,70,43,30.02,29.94,7,0,9,0.00
2013-10-13,85.2,74.3,65.9,70.2,65.4,61.2,91,75,46,30.08,30.00,13,1,14,0.00
2013-10-14,76.8,71.7,67.2,69.2,67.0,64.9,93,85,74,30.07,29.99,10,2,14,0.00
2013-10-15,71.3,69.8,68.5,68.5,67.6,66.1,96,93,89,30.01,29.94,8,2,13,0.23
2013-10-16,81.4,73.2,66.5,71.8,68.4,64.3,93,85,70,29.98,29.91,9,1,10,0.00
2013-10-17,86.8,76.5,67.7,72.9,69.8,65.5,97,81,56,29.97,29.87,6,0,7,0.00
2013-10-18,87.5,76.4,72.3,74.5,71.7,70.0,94,86,61,29.98,29.89,6,0,7,0.00
2013-10-21,75.1,75.0,74.8,72.5,72.3,72.2,92,91,91,29.98,29.96,5,1,8,0.00
2013-10-22,79.4,74.4,70.6,75.6,72.3,69.2,97,93,85,29.97,29.81,9,1,10,0.49
2013-10-23,76.1,68.3,63.3,69.2,58.0,45.9,97,73,42,30.04,29.81,9,1,15,0.21
2013-10-24,70.3,61.2,52.7,54.5,47.3,40.9,87,61,45,30.20,30.04,9,1,13,0.00
2013-10-25,72.9,61.6,56.8,55.3,51.0,45.0,90,69,48,30.27,30.17,8,1,9,0.00
2013-10-26,70.6,60.9,52.6,57.1,52.7,48.2,89,75,52,30.26,30.13,8,1,10,0.00
2013-10-27,72.7,61.9,51.2,55.3,49.5,41.2,94,68,34,30.18,30.09,6,0,8,0.00
2013-10-28,76.6,65.5,56.0,61.8,57.7,52.0,93,77,57,30.24,30.12,8,1,10,0.00
2013-10-29,76.5,68.7,62.5,67.2,62.9,59.6,93,82,58,30.29,30.20,11,2,14,0.00
2013-10-30,78.0,70.8,64.9,68.3,64.7,62.0,91,81,70,30.27,30.16,11,2,14,0.00
2013-10-31,84.6,75.1,69.0,71.3,68.4,64.7,96,81,56,30.17,29.97,7,0,9,0.01
2013-11-1,82.0,75.9,70.8,72.5,70.1,67.8,93,83,66,30.00,29.81,13,2,14,0.00
2013-11-2,76.6,68.0,62.2,72.9,63.6,55.8,97,86,57,29.97,29.77,9,1,11,1.79
2013-11-3,69.3,62.1,54.4,56.9,50.6,43.0,83,67,43,30.21,29.96,14,2,17,0.00
2013-11-4,72.7,64.3,55.7,64.1,57.7,50.7,93,79,68,30.27,30.19,18,4,26,0.05
2013-11-5,68.9,66.4,63.0,67.6,64.2,61.5,97,93,85,30.27,30.19,21,4,24,0.09
2013-11-6,77.1,69.8,65.9,70.7,67.4,64.7,97,92,78,30.19,30.08,11,2,16,0.02
2013-11-7,81.0,71.7,66.8,68.5,66.7,64.2,97,85,61,30.08,29.96,6,0,8,0.00
2013-11-8,69.9,61.1,52.0,63.8,51.1,44.8,81,70,61,30.22,30.03,16,4,22,0.00
2013-11-9,73.8,64.9,56.5,62.6,58.7,52.9,94,81,60,30.25,30.17,11,2,15,0.00
2013-11-10,74.7,66.2,60.5,65.9,61.7,58.1,99,86,67,30.23,30.12,8,1,11,0.00
2013-11-11,74.5,65.5,58.7,64.3,60.0,53.8,95,83,62,30.21,30.12,9,2,10,0.00
2013-11-12,75.0,67.6,61.1,64.3,59.2,47.8,96,76,48,30.16,30.03,12,1,15,0.00
2013-11-13,60.9,50.2,44.9,47.8,40.2,35.2,79,69,60,30.45,30.16,18,5,24,0.00
2013-11-14,64.5,54.6,43.5,57.3,49.6,36.3,94,83,71,30.41,30.24,13,2,15,0.00
2013-11-15,67.0,62.7,57.5,65.8,61.0,56.1,96,94,88,30.25,30.07,5,0,7,0.06
2013-11-16,75.1,67.8,61.8,67.3,64.6,60.9,99,90,72,30.19,30.09,13,2,14,0.01
2013-11-17,81.1,72.6,67.4,74.0,69.7,66.2,98,91,75,30.12,29.99,7,0,8,0.22
2013-11-18,78.5,72.2,69.3,73.7,70.5,67.8,98,94,84,30.02,29.89,7,1,10,0.32
2013-11-19,71.0,63.7,56.4,70.4,54.8,43.8,98,73,55,30.06,29.91,17,4,22,0.00
2013-11-20,69.5,64.7,61.1,64.5,61.1,57.1,97,88,81,30.20,30.03,15,4,19,0.02
2013-11-21,73.3,66.2,63.0,67.8,64.0,61.5,97,93,82,30.26,30.17,11,3,15,0.00
2013-11-22,78.1,69.8,64.6,69.8,65.9,63.8,98,88,69,30.26,30.13,10,1,13,0.00
2013-11-23,81.3,69.6,61.5,68.8,64.5,60.4,98,85,57,30.14,30.00,5,0,11,0.07
2013-11-24,64.7,57.4,52.9,60.4,49.0,39.9,86,74,59,30.36,30.07,19,6,25,0.00
2013-11-25,68.4,61.2,49.0,60.7,54.8,43.4,91,80,70,30.35,30.12,19,4,19,0.00
2013-11-26,75.5,70.7,66.5,73.1,67.8,60.1,97,91,79,30.12,29.68,11,1,18,1.07
2013-11-27,71.0,55.3,39.7,70.1,50.4,33.7,97,83,71,30.25,29.61,16,4,21,0.08
2013-11-28,55.2,43.9,33.2,44.9,36.8,27.8,84,76,67,30.43,30.25,11,2,14,0.00
2013-11-29,61.6,52.5,43.7,52.1,46.0,38.5,87,79,64,30.45,30.37,15,3,17,0.00
2013-11-30,60.4,56.1,54.3,56.6,53.1,49.3,93,90,81,30.40,30.25,11,3,18,0.00
2013-12-1,68.6,59.0,53.4,61.6,55.3,50.2,95,88,78,30.25,30.00,11,1,13,0.00
2013-12-2,69.0,59.5,54.2,58.1,55.0,52.4,97,86,61,30.00,29.83,7,1,8,0.00
2013-12-3,76.3,62.2,51.3,62.2,56.8,50.2,98,84,59,29.99,29.89,8,0,9,0.00
2013-12-4,79.5,67.5,58.5,68.5,63.5,57.0,98,88,66,30.10,29.95,5,0,6,0.00
2013-12-5,83.8,70.8,60.0,69.4,65.1,59.2,99,84,58,30.18,30.07,11,0,11,0.00
2013-12-6,83.6,72.9,65.1,70.5,67.2,63.6,97,83,62,30.16,30.08,8,1,14,0.00
2013-12-7,83.4,73.3,67.8,71.2,68.2,65.5,99,85,61,30.22,30.12,7,1,8,0.00
2013-12-8,69.5,65.3,63.1,66.2,63.8,62.1,98,95,89,30.26,30.15,10,3,11,0.00
2013-12-9,83.5,71.1,62.7,70.9,66.8,62.4,100,87,63,30.19,30.06,7,0,12,0.01
2013-12-10,77.8,69.2,56.2,70.7,65.2,45.4,96,87,67,30.25,30.02,11,2,14,0.35
2013-12-13,58.7,57.4,56.8,55.7,55.0,54.5,94,92,88,30.21,30.15,2,0,4,0.00
2013-12-14,76.6,66.6,56.9,69.6,64.0,55.1,97,92,77,30.15,29.88,10,1,19,0.59
2013-12-15,67.1,59.7,48.4,66.2,56.7,43.4,98,90,78,30.18,29.85,9,1,14,0.29
2013-12-16,59.4,47.8,38.9,44.8,40.8,35.4,93,78,54,30.28,30.16,7,0,9,0.00
2013-12-17,67.1,51.9,41.9,47.3,42.3,38.2,95,73,35,30.28,30.16,4,0,6,0.00
2013-12-18,64.3,54.2,45.7,45.3,37.9,25.9,89,58,24,30.32,30.20,10,0,11,0.00
2013-12-19,71.8,55.5,42.3,58.5,50.2,40.7,96,84,59,30.32,30.21,8,1,10,0.00
2013-12-20,75.2,62.3,51.4,63.1,57.9,50.6,99,86,65,30.24,30.14,8,1,11,0.00
2013-12-21,82.6,71.7,62.3,70.4,66.2,60.5,97,84,58,30.15,30.02,9,1,13,0.00
2013-12-22,83.0,74.7,69.4,71.8,70.0,68.2,97,86,68,30.14,30.05,12,1,14,0.00
2013-12-23,81.0,73.5,62.1,71.3,68.9,59.7,97,86,69,30.15,30.05,11,2,14,0.01
2013-12-24,61.7,55.2,47.6,59.7,43.8,31.6,93,68,42,30.32,30.12,12,1,14,0.01
2013-12-25,59.5,50.5,40.8,53.1,45.0,32.7,91,82,57,30.32,30.25,14,2,17,0.00
2013-12-26,56.4,52.9,49.2,51.3,48.8,45.5,92,86,81,30.29,30.18,8,1,11,0.00
2013-12-27,58.9,55.3,51.5,54.7,51.5,48.1,92,87,77,30.33,30.22,11,2,15,0.01
2013-12-28,70.4,64.0,58.1,67.4,60.9,51.4,98,90,77,30.29,29.98,10,2,13,0.01
2013-12-29,71.6,68.9,59.4,69.4,65.8,56.2,98,90,82,30.01,29.88,10,2,18,1.48
2013-12-30,66.6,57.5,49.4,56.3,49.7,46.6,93,77,54,30.21,30.01,7,1,11,0.00
2013-12-31,61.5,57.6,54.0,52.4,49.7,47.9,85,75,63,30.34,30.20,6,0,8,0.00
2014-1-1,59.9,56.5,52.9,59.0,54.3,49.5,98,92,85,30.33,30.09,7,0,8,0.62
2014-1-2,64.8,59.9,52.9,63.7,58.8,46.6,99,96,75,30.09,29.76,11,1,19,0.98